createdAt,value
2023-05-24T00:01:41.084Z,15.11
2023-05-24T00:07:03.473Z,15.02
2023-05-24T00:12:50.654Z,14.94
2023-05-24T00:18:00.703Z,14.82
2023-05-24T00:23:16.630Z,14.73
2023-05-24T00:28:41.645Z,14.63
2023-05-24T00:33:57.564Z,14.55
2023-05-24T00:39:08.165Z,14.54
2023-05-24T00:44:52.205Z,14.56
2023-05-24T00:50:25.693Z,14.58
2023-05-24T00:56:05.151Z,14.60
2023-05-24T01:01:21.837Z,14.62
2023-05-24T01:07:22.870Z,14.62
2023-05-24T01:13:27.819Z,14.64
2023-05-24T01:19:02.090Z,14.65
2023-05-24T01:24:35.935Z,14.67
2023-05-24T01:30:00.933Z,14.68
2023-05-24T01:35:23.810Z,14.69
2023-05-24T01:40:41.474Z,14.69
2023-05-24T01:46:12.034Z,14.71
2023-05-24T01:51:34.286Z,14.72
2023-05-24T01:56:57.763Z,14.74
2023-05-24T02:02:23.278Z,14.74
2023-05-24T02:07:55.362Z,14.74
2023-05-24T02:13:19.852Z,14.75
2023-05-24T02:18:41.527Z,14.74
2023-05-24T02:24:04.883Z,14.75
2023-05-24T02:29:11.916Z,14.74
2023-05-24T02:34:15.941Z,14.74
2023-05-24T02:39:35.553Z,14.73
2023-05-24T02:45:06.205Z,14.74
2023-05-24T02:50:36.851Z,14.74
2023-05-24T02:55:57.217Z,14.74
2023-05-24T03:01:25.107Z,14.74
2023-05-24T03:06:47.339Z,14.73
2023-05-24T03:12:07.990Z,14.74
2023-05-24T03:17:23.772Z,14.75
2023-05-24T03:22:46.457Z,14.74
2023-05-24T03:28:03.060Z,14.72
2023-05-24T03:33:20.304Z,14.65
2023-05-24T03:38:35.416Z,14.48
2023-05-24T03:43:48.171Z,14.27
2023-05-24T03:49:13.064Z,14.08
2023-05-24T03:54:31.426Z,13.91
2023-05-24T04:00:12.722Z,13.77
2023-05-24T04:05:51.290Z,13.59
2023-05-24T04:11:39.578Z,13.42
2023-05-24T04:16:57.586Z,13.25
2023-05-24T04:22:33.350Z,13.14
2023-05-24T04:27:39.982Z,13.05
2023-05-24T04:32:52.118Z,12.95
2023-05-24T04:38:09.411Z,12.81
2023-05-24T04:43:22.685Z,12.67
2023-05-24T04:48:39.193Z,12.59
2023-05-24T04:53:44.813Z,12.55
2023-05-24T04:58:57.438Z,12.54
2023-05-24T05:04:22.486Z,12.54
2023-05-24T05:09:43.714Z,12.51
2023-05-24T05:15:01.564Z,12.49
2023-05-24T05:20:19.263Z,12.44
2023-05-24T05:25:27.472Z,12.42
2023-05-24T05:30:35.601Z,12.42
2023-05-24T05:36:03.652Z,12.37
2023-05-24T05:41:12.176Z,12.26
2023-05-24T05:46:27.949Z,12.15
2023-05-24T05:51:46.973Z,12.06
2023-05-24T05:56:59.526Z,12.00
2023-05-24T06:02:23.035Z,11.99
2023-05-24T06:07:28.856Z,11.98
2023-05-24T06:12:51.388Z,12.00
2023-05-24T06:17:56.634Z,11.99
2023-05-24T06:23:03.322Z,11.96
2023-05-24T06:28:09.639Z,11.93
2023-05-24T06:33:11.687Z,11.94
2023-05-24T06:38:27.952Z,11.94
2023-05-24T06:43:46.145Z,11.97
2023-05-24T06:48:48.802Z,12.00
2023-05-24T06:54:11.850Z,12.07
2023-05-24T06:59:37.574Z,12.15
2023-05-24T07:04:42.632Z,12.22
2023-05-24T07:09:50.194Z,12.24
2023-05-24T07:14:56.249Z,12.26
2023-05-24T07:19:59.883Z,12.30
2023-05-24T07:25:23.082Z,12.34
2023-05-24T07:30:32.596Z,12.35
2023-05-24T07:35:52.463Z,12.39
2023-05-24T07:40:59.280Z,12.39
2023-05-24T07:46:01.650Z,12.37
2023-05-24T07:51:09.734Z,12.40
2023-05-24T07:56:15.428Z,12.45
2023-05-24T08:01:23.690Z,12.45
2023-05-24T08:06:25.933Z,12.44
2023-05-24T08:11:31.267Z,12.47
2023-05-24T08:16:33.927Z,12.56
2023-05-24T08:21:37.783Z,12.68
2023-05-24T08:26:43.814Z,12.79
2023-05-24T08:31:49.339Z,12.89
2023-05-24T08:36:55.189Z,13.00
2023-05-24T08:42:08.837Z,13.11
2023-05-24T08:47:13.846Z,13.34
2023-05-24T08:52:16.442Z,13.51
2023-05-24T08:57:20.236Z,13.56
2023-05-24T09:02:23.697Z,13.58
2023-05-24T09:07:33.217Z,13.78
2023-05-24T09:12:39.538Z,14.06
2023-05-24T09:17:41.716Z,14.11
2023-05-24T09:22:53.654Z,14.12
2023-05-24T09:28:30.902Z,14.27
2023-05-24T09:33:38.883Z,14.42
2023-05-24T09:38:50.246Z,14.45
2023-05-24T09:44:03.403Z,14.51
2023-05-24T09:49:09.641Z,14.56
2023-05-24T09:54:16.936Z,14.53
2023-05-24T09:59:24.582Z,14.34
2023-05-24T10:04:34.336Z,14.13
2023-05-24T10:09:36.705Z,14.03
2023-05-24T10:14:39.490Z,14.05
2023-05-24T10:19:42.056Z,14.19
2023-05-24T10:24:50.562Z,14.38
2023-05-24T10:30:14.921Z,14.69
2023-05-24T10:35:20.256Z,15.11
2023-05-24T10:40:27.467Z,15.51
2023-05-24T10:45:35.571Z,15.72
2023-05-24T10:50:38.073Z,15.76
2023-05-24T10:55:57.297Z,15.71
2023-05-24T11:00:59.476Z,15.66
2023-05-24T11:06:01.756Z,15.72
2023-05-24T11:11:23.238Z,15.92
2023-05-24T11:16:37.525Z,16.14
2023-05-24T11:21:43.664Z,16.20
2023-05-24T11:26:46.513Z,16.09
2023-05-24T11:31:57.622Z,16.08
2023-05-24T11:37:34.924Z,16.20
2023-05-24T11:42:44.812Z,16.35
2023-05-24T11:47:50.688Z,16.45
2023-05-24T11:52:54.025Z,16.44
2023-05-24T11:58:02.437Z,16.53
2023-05-24T12:03:07.732Z,16.66
2023-05-24T12:08:34.868Z,16.76
2023-05-24T12:13:38.176Z,16.78
2023-05-24T12:18:51.420Z,16.91
2023-05-24T12:24:14.674Z,17.05
2023-05-24T12:29:20.215Z,16.99
2023-05-24T12:34:25.122Z,16.77
2023-05-24T12:39:31.889Z,16.58
2023-05-24T12:44:36.652Z,16.45
2023-05-24T12:49:38.979Z,16.34
2023-05-24T12:54:41.596Z,16.21
2023-05-24T12:59:43.762Z,16.05
2023-05-24T13:04:46.486Z,15.94
2023-05-24T13:09:52.128Z,15.82
2023-05-24T13:14:54.359Z,15.70
2023-05-24T13:19:57.473Z,15.62
2023-05-24T13:24:59.495Z,15.67
2023-05-24T13:30:06.224Z,15.88
2023-05-24T13:35:11.946Z,16.01
2023-05-24T13:40:14.787Z,16.10
2023-05-24T13:45:17.539Z,16.08
2023-05-24T13:50:23.921Z,16.06
2023-05-24T13:55:37.096Z,15.91
2023-05-24T14:00:44.173Z,15.78
2023-05-24T14:05:49.075Z,15.66
2023-05-24T14:10:51.875Z,15.53
2023-05-24T14:15:55.379Z,15.46
2023-05-24T14:20:57.644Z,15.50
2023-05-24T14:26:00.176Z,15.49
2023-05-24T14:31:10.582Z,15.43
2023-05-24T14:36:12.709Z,15.40
2023-05-24T14:41:16.296Z,15.39
2023-05-24T14:46:18.875Z,15.31
2023-05-24T14:51:21.587Z,15.26
2023-05-24T14:56:23.790Z,15.20
2023-05-24T15:01:26.528Z,15.14
2023-05-24T15:06:34.710Z,15.07
2023-05-24T15:11:37.889Z,14.97
2023-05-24T15:16:42.309Z,14.89
2023-05-24T15:21:44.731Z,14.83
2023-05-24T15:26:47.449Z,14.76
2023-05-24T15:31:50.387Z,14.75
2023-05-24T15:36:55.645Z,14.76
2023-05-24T15:41:57.858Z,14.76
2023-05-24T15:47:00.166Z,14.78
2023-05-24T15:52:04.738Z,14.78
2023-05-24T15:57:07.773Z,14.80
2023-05-24T16:02:09.832Z,14.83
2023-05-24T16:07:12.645Z,14.85
2023-05-24T16:12:14.531Z,14.86
2023-05-24T16:17:16.664Z,14.87
2023-05-24T16:22:18.621Z,14.85
2023-05-24T16:27:21.926Z,14.84
2023-05-24T16:32:24.242Z,14.79
2023-05-24T16:37:26.241Z,14.75
2023-05-24T16:42:31.472Z,14.69
2023-05-24T16:47:34.319Z,14.62
2023-05-24T16:52:37.049Z,14.55
2023-05-24T16:57:39.277Z,14.48
2023-05-24T17:02:41.529Z,14.43
2023-05-24T17:07:45.389Z,14.39
2023-05-24T17:12:47.560Z,14.34
2023-05-24T17:17:51.401Z,14.27
2023-05-24T17:22:55.871Z,14.21
2023-05-24T17:27:58.037Z,14.14
2023-05-24T17:33:00.030Z,14.10
2023-05-24T17:38:02.180Z,14.08
2023-05-24T17:43:05.328Z,14.06
2023-05-24T17:48:08.091Z,14.02
2023-05-24T17:53:22.724Z,13.99
2023-05-24T17:58:36.307Z,13.96
2023-05-24T18:03:40.936Z,13.93
2023-05-24T18:08:44.296Z,13.90
2023-05-24T18:13:47.024Z,13.86
2023-05-24T18:18:49.136Z,13.83
2023-05-24T18:23:51.226Z,13.79
2023-05-24T18:28:54.102Z,13.74
2023-05-24T18:33:56.240Z,13.72
2023-05-24T18:38:58.255Z,13.68
2023-05-24T18:44:00.888Z,13.67
2023-05-24T18:49:04.193Z,13.66
2023-05-24T18:54:07.396Z,13.65
2023-05-24T18:59:17.063Z,13.64
2023-05-24T19:04:19.551Z,13.61
2023-05-24T19:09:21.864Z,13.57
2023-05-24T19:14:24.165Z,13.51
2023-05-24T19:19:26.608Z,13.46
2023-05-24T19:24:28.468Z,13.44
2023-05-24T19:29:34.598Z,13.41
2023-05-24T19:34:37.443Z,13.40
2023-05-24T19:39:39.501Z,13.37
2023-05-24T19:44:41.329Z,13.36
2023-05-24T19:49:43.298Z,13.36
2023-05-24T19:54:48.474Z,13.31
2023-05-24T19:59:50.574Z,13.29
2023-05-24T20:04:53.205Z,13.29
2023-05-24T20:09:56.140Z,13.27
2023-05-24T20:14:58.326Z,13.22
2023-05-24T20:20:00.711Z,13.20
2023-05-24T20:25:03.747Z,13.19
2023-05-24T20:30:17.793Z,13.18
2023-05-24T20:35:20.995Z,13.16
2023-05-24T20:40:26.923Z,13.15
2023-05-24T20:45:29.236Z,13.14
2023-05-24T20:50:33.776Z,13.13
2023-05-24T20:55:36.064Z,13.11
2023-05-24T21:00:40.087Z,13.09
2023-05-24T21:05:43.144Z,13.08
2023-05-24T21:10:51.153Z,13.07
2023-05-24T21:16:13.472Z,13.06
2023-05-24T21:21:16.857Z,13.06
2023-05-24T21:26:19.305Z,13.04
2023-05-24T21:31:21.538Z,13.05
2023-05-24T21:36:23.969Z,13.04
2023-05-24T21:41:31.622Z,13.02
2023-05-24T21:46:36.537Z,13.02
2023-05-24T21:51:53.768Z,13.01
2023-05-24T21:57:06.831Z,12.99
2023-05-24T22:02:12.339Z,12.99
2023-05-24T22:08:30.323Z,12.99
2023-05-24T22:13:32.878Z,12.99
2023-05-24T22:18:49.682Z,12.95
2023-05-24T22:24:38.401Z,12.90
2023-05-24T22:29:43.915Z,12.88
2023-05-24T22:34:49.254Z,12.83
2023-05-24T22:39:51.452Z,12.79
2023-05-24T22:44:56.416Z,12.77
2023-05-24T22:50:01.879Z,12.78
2023-05-24T22:55:08.146Z,12.78
2023-05-24T23:00:11.896Z,12.77
2023-05-24T23:05:15.101Z,12.76
2023-05-24T23:10:23.044Z,12.73
2023-05-24T23:15:29.056Z,12.69
2023-05-24T23:20:42.172Z,12.70
2023-05-24T23:25:47.329Z,12.70
2023-05-24T23:30:49.716Z,12.69
2023-05-24T23:35:53.631Z,12.70
2023-05-24T23:40:59.087Z,12.70
2023-05-24T23:46:03.625Z,12.70
2023-05-24T23:51:10.218Z,12.67
2023-05-24T23:56:13.798Z,12.66
